sensor_id;sensor_type;location;lat;lon;timestamp;pressure;altitude;pressure_sealevel;temperature
16956;BMP180;8594;52.052;8.354;2024-01-15T00:01:53;98905.00;;;4.40
16956;BMP180;8594;52.052;8.354;2024-01-15T00:04:20;98909.00;;;4.60
16956;BMP180;8594;52.052;8.354;2024-01-15T00:06:47;98901.00;;;4.50
16956;BMP180;8594;52.052;8.354;2024-01-15T00:09:13;98896.00;;;4.50
16956;BMP180;8594;52.052;8.354;2024-01-15T00:11:40;98899.00;;;4.80
16956;BMP180;8594;52.052;8.354;2024-01-15T00:14:08;98900.00;;;4.70
16956;BMP180;8594;52.052;8.354;2024-01-15T00:16:34;98893.00;;;4.90
16956;BMP180;8594;52.052;8.354;2024-01-15T00:19:02;98879.00;;;4.30
16956;BMP180;8594;52.052;8.354;2024-01-15T00:21:29;98892.00;;;4.30
16956;BMP180;8594;52.052;8.354;2024-01-15T00:23:56;98904.00;;;4.70
16956;BMP180;8594;52.052;8.354;2024-01-15T00:26:23;98892.00;;;4.60
16956;BMP180;8594;52.052;8.354;2024-01-15T00:28:49;98889.00;;;4.90
16956;BMP180;8594;52.052;8.354;2024-01-15T00:31:17;98904.00;;;4.40
16956;BMP180;8594;52.052;8.354;2024-01-15T00:33:43;98885.00;;;4.30
16956;BMP180;8594;52.052;8.354;2024-01-15T00:36:12;98887.00;;;4.80
16956;BMP180;8594;52.052;8.354;2024-01-15T00:38:40;98875.00;;;5.00
16956;BMP180;8594;52.052;8.354;2024-01-15T00:41:06;98881.00;;;4.90
16956;BMP180;8594;52.052;8.354;2024-01-15T00:43:33;98885.00;;;4.90
16956;BMP180;8594;52.052;8.354;2024-01-15T00:46:02;98874.00;;;4.50
16956;BMP180;8594;52.052;8.354;2024-01-15T00:48:29;98892.00;;;4.50
16956;BMP180;8594;52.052;8.354;2024-01-15T00:50:55;98879.00;;;4.70
16956;BMP180;8594;52.052;8.354;2024-01-15T00:53:25;98893.00;;;4.60
16956;BMP180;8594;52.052;8.354;2024-01-15T00:55:52;98882.00;;;4.60
16956;BMP180;8594;52.052;8.354;2024-01-15T00:58:19;98882.00;;;4.70
16956;BMP180;8594;52.052;8.354;2024-01-15T01:00:46;98868.00;;;4.50
16956;BMP180;8594;52.052;8.354;2024-01-15T01:03:12;98877.00;;;4.30
16956;BMP180;8594;52.052;8.354;2024-01-15T01:05:39;98873.00;;;4.50
16956;BMP180;8594;52.052;8.354;2024-01-15T01:08:06;98859.00;;;4.50
16956;BMP180;8594;52.052;8.354;2024-01-15T01:10:34;98869.00;;;4.30
16956;BMP180;8594;52.052;8.354;2024-01-15T01:13:01;98876.00;;;4.30
16956;BMP180;8594;52.052;8.354;2024-01-15T01:15:28;98867.00;;;4.80
16956;BMP180;8594;52.052;8.354;2024-01-15T01:17:55;98870.00;;;4.80
16956;BMP180;8594;52.052;8.354;2024-01-15T01:20:22;98877.00;;;4.90
16956;BMP180;8594;52.052;8.354;2024-01-15T01:22:49;98868.00;;;5.10
16956;BMP180;8594;52.052;8.354;2024-01-15T01:25:16;98864.00;;;4.70
16956;BMP180;8594;52.052;8.354;2024-01-15T01:27:45;98863.00;;;4.80
16956;BMP180;8594;52.052;8.354;2024-01-15T01:30:11;98869.00;;;4.70
16956;BMP180;8594;52.052;8.354;2024-01-15T01:32:38;98883.00;;;4.50
16956;BMP180;8594;52.052;8.354;2024-01-15T01:35:06;98879.00;;;4.30
16956;BMP180;8594;52.052;8.354;2024-01-15T01:37:33;98874.00;;;4.60
16956;BMP180;8594;52.052;8.354;2024-01-15T01:40:00;98868.00;;;4.10
16956;BMP180;8594;52.052;8.354;2024-01-15T01:42:27;98856.00;;;3.70
16956;BMP180;8594;52.052;8.354;2024-01-15T01:44:55;98869.00;;;4.30
16956;BMP180;8594;52.052;8.354;2024-01-15T01:47:23;98864.00;;;4.40
16956;BMP180;8594;52.052;8.354;2024-01-15T01:49:52;98849.00;;;4.00
16956;BMP180;8594;52.052;8.354;2024-01-15T01:52:19;98857.00;;;4.10
16956;BMP180;8594;52.052;8.354;2024-01-15T01:54:46;98860.00;;;4.20
16956;BMP180;8594;52.052;8.354;2024-01-15T01:57:14;98846.00;;;4.20
16956;BMP180;8594;52.052;8.354;2024-01-15T01:59:42;98853.00;;;4.50
16956;BMP180;8594;52.052;8.354;2024-01-15T02:02:15;98845.00;;;4.00
16956;BMP180;8594;52.052;8.354;2024-01-15T02:04:44;98844.00;;;4.60
16956;BMP180;8594;52.052;8.354;2024-01-15T02:07:14;98840.00;;;3.70
16956;BMP180;8594;52.052;8.354;2024-01-15T02:09:44;98838.00;;;3.80
16956;BMP180;8594;52.052;8.354;2024-01-15T02:12:11;98837.00;;;4.60
16956;BMP180;8594;52.052;8.354;2024-01-15T02:14:39;98822.00;;;4.00
16956;BMP180;8594;52.052;8.354;2024-01-15T02:17:06;98836.00;;;4.10
16956;BMP180;8594;52.052;8.354;2024-01-15T02:19:35;98849.00;;;4.40
16956;BMP180;8594;52.052;8.354;2024-01-15T02:22:02;98846.00;;;4.30
16956;BMP180;8594;52.052;8.354;2024-01-15T02:24:30;98854.00;;;4.50
16956;BMP180;8594;52.052;8.354;2024-01-15T02:26:58;98858.00;;;4.50
16956;BMP180;8594;52.052;8.354;2024-01-15T02:29:25;98861.00;;;4.80
16956;BMP180;8594;52.052;8.354;2024-01-15T02:31:52;98860.00;;;4.70
16956;BMP180;8594;52.052;8.354;2024-01-15T02:34:19;98843.00;;;4.50
16956;BMP180;8594;52.052;8.354;2024-01-15T02:36:45;98844.00;;;4.50
16956;BMP180;8594;52.052;8.354;2024-01-15T02:39:12;98844.00;;;4.80
16956;BMP180;8594;52.052;8.354;2024-01-15T02:41:40;98841.00;;;4.50
16956;BMP180;8594;52.052;8.354;2024-01-15T02:44:07;98840.00;;;4.50
16956;BMP180;8594;52.052;8.354;2024-01-15T02:46:33;98838.00;;;4.40
16956;BMP180;8594;52.052;8.354;2024-01-15T02:49:00;98847.00;;;4.90
16956;BMP180;8594;52.052;8.354;2024-01-15T02:51:27;98852.00;;;5.00
16956;BMP180;8594;52.052;8.354;2024-01-15T02:53:54;98837.00;;;4.40
16956;BMP180;8594;52.052;8.354;2024-01-15T02:56:20;98841.00;;;4.40
16956;BMP180;8594;52.052;8.354;2024-01-15T02:58:48;98845.00;;;4.60
16956;BMP180;8594;52.052;8.354;2024-01-15T03:01:18;98822.00;;;4.60
16956;BMP180;8594;52.052;8.354;2024-01-15T03:03:45;98844.00;;;4.50
16956;BMP180;8594;52.052;8.354;2024-01-15T03:06:11;98842.00;;;4.70
16956;BMP180;8594;52.052;8.354;2024-01-15T03:08:38;98844.00;;;4.60
16956;BMP180;8594;52.052;8.354;2024-01-15T03:11:05;98836.00;;;4.30
16956;BMP180;8594;52.052;8.354;2024-01-15T03:13:35;98829.00;;;4.70
16956;BMP180;8594;52.052;8.354;2024-01-15T03:16:04;98838.00;;;4.30
16956;BMP180;8594;52.052;8.354;2024-01-15T03:18:31;98820.00;;;4.30
16956;BMP180;8594;52.052;8.354;2024-01-15T03:20:58;98837.00;;;4.10
16956;BMP180;8594;52.052;8.354;2024-01-15T03:23:26;98837.00;;;3.90
16956;BMP180;8594;52.052;8.354;2024-01-15T03:25:53;98845.00;;;4.40
16956;BMP180;8594;52.052;8.354;2024-01-15T03:28:20;98844.00;;;4.60
16956;BMP180;8594;52.052;8.354;2024-01-15T03:30:47;98842.00;;;4.20
16956;BMP180;8594;52.052;8.354;2024-01-15T03:33:15;98833.00;;;4.10
16956;BMP180;8594;52.052;8.354;2024-01-15T03:35:42;98832.00;;;4.30
16956;BMP180;8594;52.052;8.354;2024-01-15T03:38:09;98843.00;;;4.60
16956;BMP180;8594;52.052;8.354;2024-01-15T03:40:35;98841.00;;;4.40
16956;BMP180;8594;52.052;8.354;2024-01-15T03:43:02;98835.00;;;4.40
16956;BMP180;8594;52.052;8.354;2024-01-15T03:45:29;98843.00;;;4.60
16956;BMP180;8594;52.052;8.354;2024-01-15T03:47:56;98834.00;;;4.40
16956;BMP180;8594;52.052;8.354;2024-01-15T03:50:24;98839.00;;;4.40
16956;BMP180;8594;52.052;8.354;2024-01-15T03:52:51;98835.00;;;4.40
16956;BMP180;8594;52.052;8.354;2024-01-15T03:55:18;98834.00;;;4.60
16956;BMP180;8594;52.052;8.354;2024-01-15T03:57:44;98836.00;;;4.30
16956;BMP180;8594;52.052;8.354;2024-01-15T04:00:14;98846.00;;;4.50
16956;BMP180;8594;52.052;8.354;2024-01-15T04:02:43;98840.00;;;4.40
16956;BMP180;8594;52.052;8.354;2024-01-15T04:05:10;98840.00;;;4.70
16956;BMP180;8594;52.052;8.354;2024-01-15T04:07:38;98828.00;;;4.00
16956;BMP180;8594;52.052;8.354;2024-01-15T04:10:06;98836.00;;;4.20
16956;BMP180;8594;52.052;8.354;2024-01-15T04:12:33;98843.00;;;4.20
16956;BMP180;8594;52.052;8.354;2024-01-15T04:14:59;98837.00;;;4.30
16956;BMP180;8594;52.052;8.354;2024-01-15T04:17:27;98828.00;;;3.80
16956;BMP180;8594;52.052;8.354;2024-01-15T04:19:54;98831.00;;;4.50
16956;BMP180;8594;52.052;8.354;2024-01-15T04:22:21;98826.00;;;4.70
16956;BMP180;8594;52.052;8.354;2024-01-15T04:24:50;98832.00;;;4.70
16956;BMP180;8594;52.052;8.354;2024-01-15T04:27:16;98834.00;;;4.50
16956;BMP180;8594;52.052;8.354;2024-01-15T04:29:43;98824.00;;;4.50
16956;BMP180;8594;52.052;8.354;2024-01-15T04:32:11;98831.00;;;4.60
16956;BMP180;8594;52.052;8.354;2024-01-15T04:34:38;98830.00;;;4.30
16956;BMP180;8594;52.052;8.354;2024-01-15T04:37:05;98821.00;;;4.60
16956;BMP180;8594;52.052;8.354;2024-01-15T04:39:32;98826.00;;;4.80
16956;BMP180;8594;52.052;8.354;2024-01-15T04:42:00;98818.00;;;4.80
16956;BMP180;8594;52.052;8.354;2024-01-15T04:44:27;98811.00;;;4.70
16956;BMP180;8594;52.052;8.354;2024-01-15T04:46:53;98815.00;;;4.20
16956;BMP180;8594;52.052;8.354;2024-01-15T04:49:20;98821.00;;;4.40
16956;BMP180;8594;52.052;8.354;2024-01-15T04:51:47;98806.00;;;4.60
16956;BMP180;8594;52.052;8.354;2024-01-15T04:54:14;98811.00;;;4.60
16956;BMP180;8594;52.052;8.354;2024-01-15T04:56:43;98814.00;;;4.60
16956;BMP180;8594;52.052;8.354;2024-01-15T04:59:12;98802.00;;;4.60
16956;BMP180;8594;52.052;8.354;2024-01-15T05:01:40;98799.00;;;4.60
16956;BMP180;8594;52.052;8.354;2024-01-15T05:04:07;98795.00;;;4.50
16956;BMP180;8594;52.052;8.354;2024-01-15T05:06:33;98796.00;;;4.80
16956;BMP180;8594;52.052;8.354;2024-01-15T05:09:00;98798.00;;;4.10
16956;BMP180;8594;52.052;8.354;2024-01-15T05:11:28;98802.00;;;4.10
16956;BMP180;8594;52.052;8.354;2024-01-15T05:13:54;98794.00;;;4.30
16956;BMP180;8594;52.052;8.354;2024-01-15T05:16:23;98798.00;;;4.10
16956;BMP180;8594;52.052;8.354;2024-01-15T05:18:49;98800.00;;;4.50
16956;BMP180;8594;52.052;8.354;2024-01-15T05:21:16;98801.00;;;4.60
16956;BMP180;8594;52.052;8.354;2024-01-15T05:23:43;98796.00;;;4.60
16956;BMP180;8594;52.052;8.354;2024-01-15T05:26:10;98799.00;;;4.50
16956;BMP180;8594;52.052;8.354;2024-01-15T05:28:37;98796.00;;;4.40
16956;BMP180;8594;52.052;8.354;2024-01-15T05:31:04;98793.00;;;4.60
16956;BMP180;8594;52.052;8.354;2024-01-15T05:33:32;98787.00;;;4.50
16956;BMP180;8594;52.052;8.354;2024-01-15T05:35:59;98799.00;;;4.60
16956;BMP180;8594;52.052;8.354;2024-01-15T05:38:27;98787.00;;;4.40
16956;BMP180;8594;52.052;8.354;2024-01-15T05:40:53;98804.00;;;4.50
16956;BMP180;8594;52.052;8.354;2024-01-15T05:43:20;98796.00;;;4.20
16956;BMP180;8594;52.052;8.354;2024-01-15T05:45:47;98795.00;;;4.30
16956;BMP180;8594;52.052;8.354;2024-01-15T05:48:14;98784.00;;;4.10
16956;BMP180;8594;52.052;8.354;2024-01-15T05:50:42;98776.00;;;4.10
16956;BMP180;8594;52.052;8.354;2024-01-15T05:53:09;98782.00;;;4.20
16956;BMP180;8594;52.052;8.354;2024-01-15T05:55:36;98802.00;;;3.60
16956;BMP180;8594;52.052;8.354;2024-01-15T05:58:04;98796.00;;;4.20
16956;BMP180;8594;52.052;8.354;2024-01-15T06:00:31;98787.00;;;4.50
16956;BMP180;8594;52.052;8.354;2024-01-15T06:02:58;98792.00;;;4.40
16956;BMP180;8594;52.052;8.354;2024-01-15T06:05:25;98791.00;;;4.10
16956;BMP180;8594;52.052;8.354;2024-01-15T06:07:53;98794.00;;;4.10
16956;BMP180;8594;52.052;8.354;2024-01-15T06:10:20;98793.00;;;4.10
16956;BMP180;8594;52.052;8.354;2024-01-15T06:12:46;98786.00;;;4.40
16956;BMP180;8594;52.052;8.354;2024-01-15T06:15:13;98788.00;;;4.10
16956;BMP180;8594;52.052;8.354;2024-01-15T06:17:40;98780.00;;;4.20
16956;BMP180;8594;52.052;8.354;2024-01-15T06:20:08;98780.00;;;4.50
16956;BMP180;8594;52.052;8.354;2024-01-15T06:22:35;98780.00;;;4.30
16956;BMP180;8594;52.052;8.354;2024-01-15T06:25:07;98786.00;;;4.10
16956;BMP180;8594;52.052;8.354;2024-01-15T06:27:33;98785.00;;;4.00
16956;BMP180;8594;52.052;8.354;2024-01-15T06:30:00;98786.00;;;4.10
16956;BMP180;8594;52.052;8.354;2024-01-15T06:32:27;98781.00;;;4.20
16956;BMP180;8594;52.052;8.354;2024-01-15T06:34:54;98794.00;;;4.30
16956;BMP180;8594;52.052;8.354;2024-01-15T06:37:21;98800.00;;;4.70
16956;BMP180;8594;52.052;8.354;2024-01-15T06:39:47;98786.00;;;4.40
16956;BMP180;8594;52.052;8.354;2024-01-15T06:42:16;98788.00;;;4.10
16956;BMP180;8594;52.052;8.354;2024-01-15T06:44:42;98795.00;;;3.90
16956;BMP180;8594;52.052;8.354;2024-01-15T06:47:09;98795.00;;;4.20
16956;BMP180;8594;52.052;8.354;2024-01-15T06:49:36;98795.00;;;4.40
16956;BMP180;8594;52.052;8.354;2024-01-15T06:52:03;98795.00;;;4.40
16956;BMP180;8594;52.052;8.354;2024-01-15T06:54:30;98799.00;;;4.40
16956;BMP180;8594;52.052;8.354;2024-01-15T06:56:57;98800.00;;;4.30
16956;BMP180;8594;52.052;8.354;2024-01-15T06:59:25;98801.00;;;4.40
16956;BMP180;8594;52.052;8.354;2024-01-15T07:01:52;98803.00;;;4.40
16956;BMP180;8594;52.052;8.354;2024-01-15T07:04:18;98792.00;;;4.30
16956;BMP180;8594;52.052;8.354;2024-01-15T07:06:45;98799.00;;;4.10
16956;BMP180;8594;52.052;8.354;2024-01-15T07:09:13;98809.00;;;4.30
16956;BMP180;8594;52.052;8.354;2024-01-15T07:11:44;98808.00;;;4.70
16956;BMP180;8594;52.052;8.354;2024-01-15T07:14:11;98818.00;;;4.60
16956;BMP180;8594;52.052;8.354;2024-01-15T07:16:40;98816.00;;;4.30
16956;BMP180;8594;52.052;8.354;2024-01-15T07:19:06;98816.00;;;4.40
16956;BMP180;8594;52.052;8.354;2024-01-15T07:21:33;98802.00;;;4.60
16956;BMP180;8594;52.052;8.354;2024-01-15T07:24:00;98814.00;;;4.30
16956;BMP180;8594;52.052;8.354;2024-01-15T07:26:26;98809.00;;;4.00
16956;BMP180;8594;52.052;8.354;2024-01-15T07:28:53;98810.00;;;4.50
16956;BMP180;8594;52.052;8.354;2024-01-15T07:31:20;98804.00;;;4.50
16956;BMP180;8594;52.052;8.354;2024-01-15T07:33:48;98806.00;;;4.50
16956;BMP180;8594;52.052;8.354;2024-01-15T07:36:15;98802.00;;;4.60
16956;BMP180;8594;52.052;8.354;2024-01-15T07:38:42;98798.00;;;4.70
16956;BMP180;8594;52.052;8.354;2024-01-15T07:41:08;98807.00;;;4.60
16956;BMP180;8594;52.052;8.354;2024-01-15T07:43:35;98806.00;;;4.50
16956;BMP180;8594;52.052;8.354;2024-01-15T07:46:02;98809.00;;;4.40
16956;BMP180;8594;52.052;8.354;2024-01-15T07:48:29;98815.00;;;4.10
16956;BMP180;8594;52.052;8.354;2024-01-15T07:50:57;98818.00;;;4.60
16956;BMP180;8594;52.052;8.354;2024-01-15T07:53:24;98819.00;;;5.00
16956;BMP180;8594;52.052;8.354;2024-01-15T07:55:51;98807.00;;;4.60
16956;BMP180;8594;52.052;8.354;2024-01-15T07:58:17;98812.00;;;3.80
16956;BMP180;8594;52.052;8.354;2024-01-15T08:00:44;98813.00;;;4.30
16956;BMP180;8594;52.052;8.354;2024-01-15T08:03:11;98814.00;;;4.60
16956;BMP180;8594;52.052;8.354;2024-01-15T08:05:38;98821.00;;;3.90
16956;BMP180;8594;52.052;8.354;2024-01-15T08:08:06;98831.00;;;4.20
16956;BMP180;8594;52.052;8.354;2024-01-15T08:10:33;98818.00;;;4.30
16956;BMP180;8594;52.052;8.354;2024-01-15T08:13:00;98815.00;;;4.30
16956;BMP180;8594;52.052;8.354;2024-01-15T08:15:26;98811.00;;;4.50
16956;BMP180;8594;52.052;8.354;2024-01-15T08:17:54;98822.00;;;4.40
16956;BMP180;8594;52.052;8.354;2024-01-15T08:20:20;98824.00;;;4.20
16956;BMP180;8594;52.052;8.354;2024-01-15T08:22:47;98825.00;;;4.30
16956;BMP180;8594;52.052;8.354;2024-01-15T08:25:15;98809.00;;;3.60
16956;BMP180;8594;52.052;8.354;2024-01-15T08:27:42;98823.00;;;4.10
16956;BMP180;8594;52.052;8.354;2024-01-15T08:30:11;98813.00;;;4.30
16956;BMP180;8594;52.052;8.354;2024-01-15T08:32:37;98813.00;;;4.00
16956;BMP180;8594;52.052;8.354;2024-01-15T08:35:07;98814.00;;;4.20
16956;BMP180;8594;52.052;8.354;2024-01-15T08:37:34;98812.00;;;4.80
16956;BMP180;8594;52.052;8.354;2024-01-15T08:40:01;98815.00;;;4.20
16956;BMP180;8594;52.052;8.354;2024-01-15T08:42:30;98812.00;;;4.30
16956;BMP180;8594;52.052;8.354;2024-01-15T08:44:56;98807.00;;;4.30
16956;BMP180;8594;52.052;8.354;2024-01-15T08:47:23;98813.00;;;4.20
16956;BMP180;8594;52.052;8.354;2024-01-15T08:49:51;98815.00;;;4.50
16956;BMP180;8594;52.052;8.354;2024-01-15T08:52:18;98811.00;;;4.10
16956;BMP180;8594;52.052;8.354;2024-01-15T08:54:45;98826.00;;;4.70
16956;BMP180;8594;52.052;8.354;2024-01-15T08:57:12;98817.00;;;4.30
16956;BMP180;8594;52.052;8.354;2024-01-15T08:59:40;98812.00;;;4.10
16956;BMP180;8594;52.052;8.354;2024-01-15T09:02:07;98810.00;;;4.20
16956;BMP180;8594;52.052;8.354;2024-01-15T09:04:34;98813.00;;;4.00
16956;BMP180;8594;52.052;8.354;2024-01-15T09:07:01;98818.00;;;4.00
16956;BMP180;8594;52.052;8.354;2024-01-15T09:09:28;98823.00;;;4.10
16956;BMP180;8594;52.052;8.354;2024-01-15T09:11:54;98826.00;;;4.40
16956;BMP180;8594;52.052;8.354;2024-01-15T09:14:21;98824.00;;;4.60
16956;BMP180;8594;52.052;8.354;2024-01-15T09:16:51;98814.00;;;4.10
16956;BMP180;8594;52.052;8.354;2024-01-15T09:19:18;98811.00;;;4.20
16956;BMP180;8594;52.052;8.354;2024-01-15T09:21:44;98813.00;;;4.20
16956;BMP180;8594;52.052;8.354;2024-01-15T09:24:11;98818.00;;;4.30
16956;BMP180;8594;52.052;8.354;2024-01-15T09:26:38;98813.00;;;4.30
16956;BMP180;8594;52.052;8.354;2024-01-15T09:29:05;98810.00;;;4.40
16956;BMP180;8594;52.052;8.354;2024-01-15T09:31:31;98812.00;;;4.60
16956;BMP180;8594;52.052;8.354;2024-01-15T09:33:59;98812.00;;;4.10
16956;BMP180;8594;52.052;8.354;2024-01-15T09:36:27;98819.00;;;4.50
16956;BMP180;8594;52.052;8.354;2024-01-15T09:38:54;98814.00;;;4.60
16956;BMP180;8594;52.052;8.354;2024-01-15T09:41:21;98793.00;;;4.30
16956;BMP180;8594;52.052;8.354;2024-01-15T09:43:48;98806.00;;;4.20
16956;BMP180;8594;52.052;8.354;2024-01-15T09:46:15;98806.00;;;4.40
16956;BMP180;8594;52.052;8.354;2024-01-15T09:48:43;98802.00;;;4.60
16956;BMP180;8594;52.052;8.354;2024-01-15T09:51:11;98809.00;;;4.50
16956;BMP180;8594;52.052;8.354;2024-01-15T09:53:41;98806.00;;;4.60
16956;BMP180;8594;52.052;8.354;2024-01-15T09:56:10;98810.00;;;4.70
16956;BMP180;8594;52.052;8.354;2024-01-15T09:58:38;98807.00;;;4.50
16956;BMP180;8594;52.052;8.354;2024-01-15T10:01:05;98797.00;;;4.60
16956;BMP180;8594;52.052;8.354;2024-01-15T10:03:33;98801.00;;;4.70
16956;BMP180;8594;52.052;8.354;2024-01-15T10:06:00;98802.00;;;4.30
16956;BMP180;8594;52.052;8.354;2024-01-15T10:08:29;98805.00;;;4.30
16956;BMP180;8594;52.052;8.354;2024-01-15T10:10:55;98804.00;;;4.70
16956;BMP180;8594;52.052;8.354;2024-01-15T10:13:22;98812.00;;;4.60
16956;BMP180;8594;52.052;8.354;2024-01-15T10:15:48;98806.00;;;4.00
16956;BMP180;8594;52.052;8.354;2024-01-15T10:18:16;98813.00;;;4.70
16956;BMP180;8594;52.052;8.354;2024-01-15T10:20:42;98811.00;;;4.00
16956;BMP180;8594;52.052;8.354;2024-01-15T10:23:09;98804.00;;;4.40
16956;BMP180;8594;52.052;8.354;2024-01-15T10:25:37;98814.00;;;4.60
16956;BMP180;8594;52.052;8.354;2024-01-15T10:28:05;98811.00;;;4.10
16956;BMP180;8594;52.052;8.354;2024-01-15T10:30:32;98800.00;;;4.70
16956;BMP180;8594;52.052;8.354;2024-01-15T10:33:02;98800.00;;;4.80
16956;BMP180;8594;52.052;8.354;2024-01-15T10:35:31;98793.00;;;4.70
16956;BMP180;8594;52.052;8.354;2024-01-15T10:37:59;98779.00;;;5.10
16956;BMP180;8594;52.052;8.354;2024-01-15T10:40:26;98785.00;;;5.00
16956;BMP180;8594;52.052;8.354;2024-01-15T10:42:55;98785.00;;;4.60
16956;BMP180;8594;52.052;8.354;2024-01-15T10:45:23;98797.00;;;5.00
16956;BMP180;8594;52.052;8.354;2024-01-15T10:47:50;98783.00;;;5.00
16956;BMP180;8594;52.052;8.354;2024-01-15T10:50:17;98792.00;;;4.40
16956;BMP180;8594;52.052;8.354;2024-01-15T10:52:44;98795.00;;;4.90
16956;BMP180;8594;52.052;8.354;2024-01-15T10:55:11;98793.00;;;4.50
16956;BMP180;8594;52.052;8.354;2024-01-15T10:57:39;98798.00;;;5.00
16956;BMP180;8594;52.052;8.354;2024-01-15T11:00:09;98803.00;;;5.10
16956;BMP180;8594;52.052;8.354;2024-01-15T11:02:41;98792.00;;;4.70
16956;BMP180;8594;52.052;8.354;2024-01-15T11:05:09;98785.00;;;4.90
16956;BMP180;8594;52.052;8.354;2024-01-15T11:07:40;98787.00;;;5.20
16956;BMP180;8594;52.052;8.354;2024-01-15T11:10:08;98780.00;;;4.80
16956;BMP180;8594;52.052;8.354;2024-01-15T11:12:55;98775.00;;;4.70
16956;BMP180;8594;52.052;8.354;2024-01-15T11:15:23;98783.00;;;4.60
16956;BMP180;8594;52.052;8.354;2024-01-15T11:18:01;98786.00;;;4.90
16956;BMP180;8594;52.052;8.354;2024-01-15T11:20:31;98773.00;;;4.80
16956;BMP180;8594;52.052;8.354;2024-01-15T11:22:58;98785.00;;;4.40
16956;BMP180;8594;52.052;8.354;2024-01-15T11:25:35;98781.00;;;4.60
16956;BMP180;8594;52.052;8.354;2024-01-15T11:28:04;98779.00;;;4.80
16956;BMP180;8594;52.052;8.354;2024-01-15T11:30:32;98773.00;;;4.90
16956;BMP180;8594;52.052;8.354;2024-01-15T11:33:02;98774.00;;;5.10
16956;BMP180;8594;52.052;8.354;2024-01-15T11:35:50;98781.00;;;4.50
16956;BMP180;8594;52.052;8.354;2024-01-15T11:38:27;98776.00;;;5.10
16956;BMP180;8594;52.052;8.354;2024-01-15T11:40:54;98777.00;;;4.60
16956;BMP180;8594;52.052;8.354;2024-01-15T11:43:22;98779.00;;;4.50
16956;BMP180;8594;52.052;8.354;2024-01-15T11:45:52;98775.00;;;4.90
16956;BMP180;8594;52.052;8.354;2024-01-15T11:48:20;98776.00;;;4.90
16956;BMP180;8594;52.052;8.354;2024-01-15T11:50:50;98773.00;;;4.80
16956;BMP180;8594;52.052;8.354;2024-01-15T11:53:26;98776.00;;;4.80
16956;BMP180;8594;52.052;8.354;2024-01-15T11:55:58;98772.00;;;4.80
16956;BMP180;8594;52.052;8.354;2024-01-15T11:58:26;98774.00;;;4.50
16956;BMP180;8594;52.052;8.354;2024-01-15T12:00:54;98769.00;;;4.70
16956;BMP180;8594;52.052;8.354;2024-01-15T12:03:21;98768.00;;;5.00
16956;BMP180;8594;52.052;8.354;2024-01-15T12:05:48;98781.00;;;4.40
16956;BMP180;8594;52.052;8.354;2024-01-15T12:08:21;98787.00;;;4.40
16956;BMP180;8594;52.052;8.354;2024-01-15T12:10:48;98785.00;;;4.60
16956;BMP180;8594;52.052;8.354;2024-01-15T12:13:16;98775.00;;;4.80
16956;BMP180;8594;52.052;8.354;2024-01-15T12:15:45;98775.00;;;4.70
16956;BMP180;8594;52.052;8.354;2024-01-15T12:18:15;98779.00;;;4.70
16956;BMP180;8594;52.052;8.354;2024-01-15T12:20:44;98770.00;;;4.60
16956;BMP180;8594;52.052;8.354;2024-01-15T12:23:12;98777.00;;;4.70
16956;BMP180;8594;52.052;8.354;2024-01-15T12:25:40;98769.00;;;4.60
16956;BMP180;8594;52.052;8.354;2024-01-15T12:28:07;98771.00;;;4.70
16956;BMP180;8594;52.052;8.354;2024-01-15T12:30:35;98764.00;;;4.10
16956;BMP180;8594;52.052;8.354;2024-01-15T12:33:04;98768.00;;;5.00
16956;BMP180;8594;52.052;8.354;2024-01-15T12:35:34;98775.00;;;5.00
16956;BMP180;8594;52.052;8.354;2024-01-15T12:38:01;98782.00;;;5.30
16956;BMP180;8594;52.052;8.354;2024-01-15T12:40:29;98768.00;;;4.40
16956;BMP180;8594;52.052;8.354;2024-01-15T12:42:56;98767.00;;;4.70
16956;BMP180;8594;52.052;8.354;2024-01-15T12:45:23;98776.00;;;4.40
16956;BMP180;8594;52.052;8.354;2024-01-15T12:47:50;98771.00;;;5.00
16956;BMP180;8594;52.052;8.354;2024-01-15T12:50:17;98774.00;;;4.60
16956;BMP180;8594;52.052;8.354;2024-01-15T12:52:45;98780.00;;;4.60
16956;BMP180;8594;52.052;8.354;2024-01-15T12:55:13;98770.00;;;4.90
16956;BMP180;8594;52.052;8.354;2024-01-15T12:57:40;98768.00;;;4.50
16956;BMP180;8594;52.052;8.354;2024-01-15T13:00:07;98766.00;;;4.80
16956;BMP180;8594;52.052;8.354;2024-01-15T13:02:37;98773.00;;;4.40
16956;BMP180;8594;52.052;8.354;2024-01-15T13:05:06;98767.00;;;5.10
16956;BMP180;8594;52.052;8.354;2024-01-15T13:07:33;98774.00;;;4.90
16956;BMP180;8594;52.052;8.354;2024-01-15T13:10:01;98770.00;;;4.70
16956;BMP180;8594;52.052;8.354;2024-01-15T13:12:28;98779.00;;;4.10
16956;BMP180;8594;52.052;8.354;2024-01-15T13:14:55;98772.00;;;4.20
16956;BMP180;8594;52.052;8.354;2024-01-15T13:17:21;98768.00;;;4.80
16956;BMP180;8594;52.052;8.354;2024-01-15T13:19:48;98768.00;;;4.50
16956;BMP180;8594;52.052;8.354;2024-01-15T13:22:15;98762.00;;;5.00
16956;BMP180;8594;52.052;8.354;2024-01-15T13:24:42;98757.00;;;4.70
16956;BMP180;8594;52.052;8.354;2024-01-15T13:27:10;98768.00;;;4.40
16956;BMP180;8594;52.052;8.354;2024-01-15T13:29:37;98767.00;;;4.70
16956;BMP180;8594;52.052;8.354;2024-01-15T13:32:04;98765.00;;;4.70
16956;BMP180;8594;52.052;8.354;2024-01-15T13:34:31;98768.00;;;4.90
16956;BMP180;8594;52.052;8.354;2024-01-15T13:36:58;98778.00;;;4.40
16956;BMP180;8594;52.052;8.354;2024-01-15T13:39:25;98783.00;;;4.30
16956;BMP180;8594;52.052;8.354;2024-01-15T13:41:51;98761.00;;;4.70
16956;BMP180;8594;52.052;8.354;2024-01-15T13:44:20;98779.00;;;4.50
16956;BMP180;8594;52.052;8.354;2024-01-15T13:46:47;98787.00;;;4.60
16956;BMP180;8594;52.052;8.354;2024-01-15T13:49:13;98786.00;;;4.70
16956;BMP180;8594;52.052;8.354;2024-01-15T13:51:40;98775.00;;;4.90
16956;BMP180;8594;52.052;8.354;2024-01-15T13:54:07;98773.00;;;5.10
16956;BMP180;8594;52.052;8.354;2024-01-15T13:56:34;98779.00;;;4.70
16956;BMP180;8594;52.052;8.354;2024-01-15T13:59:01;98783.00;;;4.60
16956;BMP180;8594;52.052;8.354;2024-01-15T14:01:31;98777.00;;;4.90
16956;BMP180;8594;52.052;8.354;2024-01-15T14:03:58;98777.00;;;4.50
16956;BMP180;8594;52.052;8.354;2024-01-15T14:06:25;98788.00;;;4.40
16956;BMP180;8594;52.052;8.354;2024-01-15T14:08:52;98786.00;;;4.40
16956;BMP180;8594;52.052;8.354;2024-01-15T14:11:18;98786.00;;;4.40
16956;BMP180;8594;52.052;8.354;2024-01-15T14:13:45;98782.00;;;4.20
16956;BMP180;8594;52.052;8.354;2024-01-15T14:16:13;98781.00;;;4.50
16956;BMP180;8594;52.052;8.354;2024-01-15T14:18:41;98782.00;;;4.90
16956;BMP180;8594;52.052;8.354;2024-01-15T14:21:07;98785.00;;;5.10
16956;BMP180;8594;52.052;8.354;2024-01-15T14:23:35;98785.00;;;5.10
16956;BMP180;8594;52.052;8.354;2024-01-15T14:26:02;98791.00;;;4.90
16956;BMP180;8594;52.052;8.354;2024-01-15T14:28:29;98795.00;;;4.80
16956;BMP180;8594;52.052;8.354;2024-01-15T14:30:56;98794.00;;;4.70
16956;BMP180;8594;52.052;8.354;2024-01-15T14:33:24;98805.00;;;4.00
16956;BMP180;8594;52.052;8.354;2024-01-15T14:35:52;98813.00;;;4.30